Time;durP1;ratioP1;P1;durP2;ratioP2;P2;SDS_P1;SDS_P2;PMS_P1;PMS_P2;Temp;Humidity;BMP_temperature;BMP_pressure;BME280_temperature;BME280_humidity;BME280_pressure;Samples;Min_cycle;Max_cycle;Signal;HPM_P1;HPM_P2
2023/04/08 00:01:04;;;;;;;36.93;19.23;;;;;;;-145.18;100.00;46670.16;6181709;23;20437;-71
2023/04/08 00:03:30;;;;;;;42.00;17.80;;;;;;;-145.18;100.00;46670.16;6181891;23;20058;-71
2023/04/08 00:05:55;;;;;;;42.90;19.00;;;;;;;-145.18;100.00;46674.06;6181747;23;20020;-71
2023/04/08 00:08:20;;;;;;;41.60;19.30;;;;;;;-145.18;100.00;46666.25;6181949;23;20006;-71
2023/04/08 00:10:46;;;;;;;51.80;18.87;;;;;;;-145.18;100.00;46674.06;6181917;23;20256;-70
2023/04/08 00:13:12;;;;;;;41.53;19.07;;;;;;;-145.18;100.00;46672.13;6155719;23;20013;-71
2023/04/08 00:15:37;;;;;;;45.27;19.97;;;;;;;-145.18;100.00;46674.06;6181538;23;20017;-72
2023/04/08 00:18:03;;;;;;;42.77;18.90;;;;;;;-145.18;100.00;46676.03;6181768;23;20036;-73
2023/04/08 00:20:28;;;;;;;47.33;19.97;;;;;;;-145.18;100.00;46672.13;6181880;23;20020;-73
2023/04/08 00:22:54;;;;;;;42.83;19.10;;;;;;;-145.18;100.00;46674.06;6181730;23;20012;-72
2023/04/08 00:25:19;;;;;;;49.27;19.80;;;;;;;-145.18;100.00;46674.06;6181911;23;20494;-72
2023/04/08 00:27:44;;;;;;;46.13;19.37;;;;;;;-145.18;100.00;46676.03;6181618;23;20080;-72
2023/04/08 00:30:10;;;;;;;46.27;19.67;;;;;;;-145.18;100.00;46672.13;6181915;23;20080;-72
2023/04/08 00:32:36;;;;;;;41.33;17.57;;;;;;;-145.18;100.00;46670.16;6182001;23;20019;-73
2023/04/08 00:35:01;;;;;;;53.43;20.60;;;;;;;-145.18;100.00;46677.97;6155623;23;20032;-71
2023/04/08 00:37:27;;;;;;;43.53;20.80;;;;;;;-145.18;100.00;46668.22;6181736;23;20504;-72
2023/04/08 00:39:53;;;;;;;47.67;20.03;;;;;;;-145.18;100.00;46672.13;6181404;23;20028;-73
2023/04/08 00:42:19;;;;;;;42.77;20.30;;;;;;;-145.18;100.00;46668.22;6181654;23;20079;-73
2023/04/08 00:44:45;;;;;;;48.40;21.20;;;;;;;-145.18;100.00;46672.13;6182095;23;20005;-71
2023/04/08 00:47:12;;;;;;;46.40;20.00;;;;;;;-145.18;100.00;46674.06;6181885;23;20955;-72
2023/04/08 00:49:37;;;;;;;50.97;21.50;;;;;;;-145.18;100.00;46676.03;6181835;23;20013;-72
2023/04/08 00:52:03;;;;;;;51.40;21.60;;;;;;;-145.18;100.00;46672.13;6181709;23;20802;-72
2023/04/08 00:54:30;;;;;;;53.60;20.70;;;;;;;-145.18;100.00;46668.22;6181532;23;20005;-72
2023/04/08 00:56:58;;;;;;;51.63;22.20;;;;;;;-145.18;100.00;46666.25;6155040;23;20397;-72
2023/04/08 00:59:25;;;;;;;43.57;20.93;;;;;;;-145.18;100.00;46666.25;6182213;23;20534;-72
2023/04/08 01:02:05;;;;;;;54.60;21.20;;;;;;;-145.18;100.00;46666.25;6183435;23;20293;-73
2023/04/08 01:04:44;;;;;;;49.90;22.03;;;;;;;-145.18;100.00;46672.13;6183466;23;20239;-72
2023/04/08 01:07:24;;;;;;;51.87;22.57;;;;;;;-145.18;100.00;46674.06;6183612;23;20223;-72
2023/04/08 01:10:00;;;;;;;59.80;23.10;;;;;;;-145.18;100.00;46670.16;6183490;23;20656;-72
2023/04/08 01:12:29;;;;;;;53.33;22.53;;;;;;;-145.18;100.00;46666.25;6183401;23;20227;-72
2023/04/08 01:15:01;;;;;;;48.00;21.23;;;;;;;-145.18;100.00;46668.22;6183406;23;20286;-73
2023/04/08 01:17:29;;;;;;;55.83;22.00;;;;;;;-145.18;100.00;46674.06;6183455;23;20219;-73
2023/04/08 01:19:56;;;;;;;51.50;22.17;;;;;;;-145.18;100.00;46674.06;6183443;23;20227;-72
2023/04/08 01:22:40;;;;;;;58.20;22.60;;;;;;;-145.18;100.00;46674.06;6183149;23;20231;-73
2023/04/08 01:25:13;;;;;;;62.97;23.07;;;;;;;-145.18;100.00;46676.03;6183586;23;20254;-72
2023/04/08 01:27:39;;;;;;;53.23;21.07;;;;;;;-145.18;100.00;46676.03;6183508;23;20276;-73
2023/04/08 01:30:06;;;;;;;54.37;22.00;;;;;;;-145.18;100.00;46664.31;6183422;23;20274;-72
2023/04/08 01:32:34;;;;;;;60.20;24.20;;;;;;;-145.18;100.00;46674.06;6183312;23;20013;-72
2023/04/08 01:35:00;;;;;;;52.87;22.43;;;;;;;-145.18;100.00;46676.03;6183317;23;20704;-72
2023/04/08 01:37:28;;;;;;;61.17;23.40;;;;;;;-145.18;100.00;46670.16;6182918;23;20304;-72
2023/04/08 01:39:54;;;;;;;56.80;22.00;;;;;;;-145.18;100.00;46670.16;6183276;23;20230;-72
2023/04/08 01:42:22;;;;;;;57.07;21.93;;;;;;;-145.18;100.00;46670.16;6183422;23;20692;-72
2023/04/08 01:44:50;;;;;;;61.27;22.37;;;;;;;-145.18;100.00;46672.13;6183093;23;20219;-72
2023/04/08 01:47:15;;;;;;;65.13;23.00;;;;;;;-145.18;100.00;46670.16;6183134;23;20227;-72
2023/04/08 01:49:42;;;;;;;66.70;23.30;;;;;;;-145.18;100.00;46670.16;6183172;23;20588;-72
2023/04/08 01:52:08;;;;;;;60.03;21.90;;;;;;;-145.18;100.00;46664.31;6183215;23;20005;-72
2023/04/08 01:54:34;;;;;;;58.20;22.73;;;;;;;-145.18;100.00;46666.25;6183023;23;20285;-72
2023/04/08 01:57:05;;;;;;;75.20;25.20;;;;;;;-145.18;100.00;46670.16;6182883;23;20254;-72
2023/04/08 01:59:35;;;;;;;68.67;25.33;;;;;;;-145.18;100.00;46674.06;6183638;23;20032;-72
2023/04/08 02:02:03;;;;;;;73.37;25.47;;;;;;;-145.18;100.00;46666.25;6141961;23;20254;-72
2023/04/08 02:04:29;;;;;;;65.20;24.83;;;;;;;-145.18;100.00;46676.03;6182554;23;20699;-72
2023/04/08 02:06:55;;;;;;;63.03;24.00;;;;;;;-145.18;100.00;46674.06;6182323;23;20235;-72
2023/04/08 02:09:21;;;;;;;76.30;24.07;;;;;;;-145.18;100.00;46687.75;6183562;23;20028;-72
2023/04/08 02:11:46;;;;;;;61.77;24.30;;;;;;;-145.18;100.00;46672.13;6183014;23;20262;-72
2023/04/08 02:14:11;;;;;;;71.80;24.70;;;;;;;-145.18;100.00;46668.22;6182499;23;20061;-72
2023/04/08 02:16:48;;;;;;;65.30;24.73;;;;;;;-145.18;100.00;46670.16;6183234;23;20089;-73
2023/04/08 02:19:24;;;;;;;63.97;23.47;;;;;;;-145.18;100.00;46662.34;6182894;23;20500;-73
2023/04/08 02:21:56;;;;;;;67.65;24.65;;;;;;;-145.18;100.00;46666.25;6183269;23;20556;-73
2023/04/08 02:24:21;;;;;;;60.87;24.43;;;;;;;-145.18;100.00;46670.16;6183359;23;20051;-73
2023/04/08 02:26:50;;;;;;;69.70;23.87;;;;;;;-145.18;100.00;46668.22;6182863;23;20235;-73
2023/04/08 02:29:17;;;;;;;62.17;23.73;;;;;;;-145.18;100.00;46670.16;6183121;23;20009;-73
2023/04/08 02:31:43;;;;;;;69.97;26.80;;;;;;;-145.18;100.00;46664.31;6183273;23;20227;-72
2023/04/08 02:34:10;;;;;;;66.17;25.17;;;;;;;-145.18;100.00;46670.16;6156747;23;20251;-73
2023/04/08 02:36:36;;;;;;;67.03;24.53;;;;;;;-145.18;100.00;46670.16;6182801;23;20231;-73
2023/04/08 02:39:02;;;;;;;66.80;24.63;;;;;;;-145.18;100.00;46674.06;6182638;23;20318;-73
2023/04/08 02:41:29;;;;;;;59.90;24.27;;;;;;;-145.18;100.00;46676.03;6156940;23;20242;-73
2023/04/08 02:43:54;;;;;;;53.23;21.63;;;;;;;-145.18;100.00;46674.06;6182550;23;20231;-73
2023/04/08 02:46:20;;;;;;;52.10;21.60;;;;;;;-145.18;100.00;46668.22;6183129;23;20285;-73
2023/04/08 02:48:45;;;;;;;57.93;24.10;;;;;;;-145.18;100.00;46670.16;6182495;23;20032;-73
2023/04/08 02:51:11;;;;;;;57.67;22.33;;;;;;;-145.18;100.00;46670.16;6182560;23;20371;-73
2023/04/08 02:53:36;;;;;;;47.17;21.20;;;;;;;-145.18;100.00;46664.31;6182768;23;20005;-73
2023/04/08 02:56:01;;;;;;;55.03;21.60;;;;;;;-145.18;100.00;46672.13;6182549;23;20020;-73
2023/04/08 02:58:27;;;;;;;47.27;21.33;;;;;;;-145.18;100.00;46668.22;6182721;23;20020;-73
2023/04/08 03:00:52;;;;;;;53.87;21.17;;;;;;;-145.18;100.00;46664.31;6182462;23;20021;-73
2023/04/08 03:03:18;;;;;;;52.03;22.07;;;;;;;-145.18;100.00;46670.16;6182311;23;20028;-73
2023/04/08 03:05:43;;;;;;;59.67;22.50;;;;;;;-145.18;100.00;46668.22;6183175;23;20001;-73
2023/04/08 03:08:09;;;;;;;51.90;22.77;;;;;;;-145.18;100.00;46672.13;6181958;23;20446;-73
2023/04/08 03:10:34;;;;;;;56.43;22.77;;;;;;;-145.18;100.00;46666.25;6182657;23;20005;-73
2023/04/08 03:12:59;;;;;;;53.63;22.60;;;;;;;-145.18;100.00;46670.16;6182338;23;20005;-73
2023/04/08 03:15:25;;;;;;;59.43;23.20;;;;;;;-145.18;100.00;46666.25;6182736;23;20009;-73
2023/04/08 03:17:50;;;;;;;61.97;24.50;;;;;;;-145.18;100.00;46672.13;6182452;23;20092;-73
2023/04/08 03:20:16;;;;;;;62.63;23.50;;;;;;;-145.18;100.00;46672.13;6181956;23;20012;-73
2023/04/08 03:22:41;;;;;;;70.97;25.27;;;;;;;-145.18;100.00;46664.31;6180363;23;20013;-73
2023/04/08 03:25:07;;;;;;;66.27;24.40;;;;;;;-145.18;100.00;46668.22;6182458;23;20033;-73
2023/04/08 03:27:32;;;;;;;69.73;24.90;;;;;;;-145.18;100.00;46670.16;6182451;23;20013;-73
2023/04/08 03:29:57;;;;;;;72.23;23.77;;;;;;;-145.18;100.00;46668.22;6181938;23;20009;-73
2023/04/08 03:32:23;;;;;;;70.23;24.80;;;;;;;-145.18;100.00;46676.03;6182095;23;20096;-73
2023/04/08 03:34:50;;;;;;;76.27;24.60;;;;;;;-145.18;100.00;46674.06;6156089;23;20370;-71
2023/04/08 03:37:16;;;;;;;64.23;23.57;;;;;;;-145.18;100.00;46668.22;6131443;23;20013;-72
2023/04/08 03:39:41;;;;;;;67.87;22.10;;;;;;;-145.18;100.00;46672.13;6182567;23;20235;-71
2023/04/08 03:42:07;;;;;;;67.77;24.20;;;;;;;-145.18;100.00;46672.13;6181890;23;20245;-72
2023/04/08 03:44:32;;;;;;;69.20;25.23;;;;;;;-145.18;100.00;46662.34;6182039;23;20004;-72
2023/04/08 03:46:57;;;;;;;65.73;24.07;;;;;;;-145.18;100.00;46674.06;6182301;23;20009;-72
2023/04/08 03:49:23;;;;;;;69.80;25.00;;;;;;;-145.18;100.00;46672.13;6182124;23;20334;-72
2023/04/08 03:51:48;;;;;;;68.33;26.07;;;;;;;-145.18;100.00;46672.13;6182188;23;20101;-72
2023/04/08 03:54:14;;;;;;;71.60;26.03;;;;;;;-145.18;100.00;46664.31;6181513;23;20048;-72
2023/04/08 03:56:39;;;;;;;78.23;26.80;;;;;;;-145.18;100.00;46674.06;6182421;23;20062;-72
2023/04/08 03:59:05;;;;;;;71.43;26.57;;;;;;;-145.18;100.00;46672.13;6181921;23;20056;-71
2023/04/08 04:01:31;;;;;;;74.80;27.60;;;;;;;-145.18;100.00;46677.97;6155580;23;20012;-71
2023/04/08 04:03:57;;;;;;;69.10;25.93;;;;;;;-145.18;100.00;46674.06;6181230;23;20508;-72
2023/04/08 04:06:22;;;;;;;68.60;26.60;;;;;;;-145.18;100.00;46672.13;6181783;23;20005;-71
2023/04/08 04:08:48;;;;;;;76.07;25.60;;;;;;;-145.18;100.00;46670.16;6181987;23;20426;-72
2023/04/08 04:11:15;;;;;;;72.40;25.10;;;;;;;-145.18;100.00;46672.13;6181862;23;20454;-72
2023/04/08 04:13:41;;;;;;;78.27;25.90;;;;;;;-145.18;100.00;46676.03;6182123;23;20286;-72
2023/04/08 04:16:06;;;;;;;80.57;26.13;;;;;;;-145.18;100.00;46679.94;6155477;23;20017;-72
2023/04/08 04:18:31;;;;;;;73.47;24.87;;;;;;;-145.18;100.00;46681.88;6180222;23;20013;-72
2023/04/08 04:20:57;;;;;;;87.77;25.77;;;;;;;-145.18;100.00;46670.16;6181115;23;20083;-72
2023/04/08 04:23:24;;;;;;;66.17;23.97;;;;;;;-145.18;100.00;46677.97;6180731;23;20005;-72
2023/04/08 04:25:49;;;;;;;78.77;23.73;;;;;;;-145.18;100.00;46676.03;6181511;23;20016;-72
2023/04/08 04:28:15;;;;;;;94.70;23.13;;;;;;;-145.18;100.00;46672.13;6178538;23;20596;-71
2023/04/08 04:30:40;;;;;;;79.07;23.57;;;;;;;-145.18;100.00;46679.94;6180666;23;20013;-72
2023/04/08 04:33:06;;;;;;;98.27;25.77;;;;;;;-145.18;100.00;46674.06;6180095;23;20012;-72
2023/04/08 04:35:32;;;;;;;76.97;24.23;;;;;;;-145.18;100.00;46679.94;6180829;23;20123;-71
2023/04/08 04:37:58;;;;;;;114.67;25.40;;;;;;;-145.18;100.00;46672.13;6180309;23;20013;-72
2023/04/08 04:40:23;;;;;;;90.53;25.87;;;;;;;-145.18;100.00;46676.03;6180781;23;20233;-72
2023/04/08 04:42:49;;;;;;;78.87;24.23;;;;;;;-145.18;100.00;46676.03;6153741;23;20035;-72
2023/04/08 04:45:14;;;;;;;98.43;21.53;;;;;;;-145.18;100.00;46676.03;6180713;23;20040;-72
2023/04/08 04:47:39;;;;;;;82.93;22.83;;;;;;;-145.18;100.00;46679.94;6180604;23;20718;-72
2023/04/08 04:50:05;;;;;;;85.17;22.77;;;;;;;-145.18;100.00;46681.88;6154161;23;20442;-72
2023/04/08 04:52:31;;;;;;;67.07;23.43;;;;;;;-145.18;100.00;46676.03;6180625;23;20009;-72
2023/04/08 04:54:57;;;;;;;74.23;21.60;;;;;;;-145.18;100.00;46677.97;6180427;23;20250;-72
2023/04/08 04:57:22;;;;;;;97.90;22.63;;;;;;;-145.18;100.00;46677.97;6174904;23;20342;-72
2023/04/08 04:59:48;;;;;;;122.27;23.17;;;;;;;-145.18;100.00;46677.97;6180856;23;20024;-72
2023/04/08 05:02:13;;;;;;;77.00;23.43;;;;;;;-145.18;100.00;46676.03;6181251;23;20010;-72
2023/04/08 05:04:38;;;;;;;93.13;25.33;;;;;;;-145.18;100.00;46672.13;6181886;23;20477;-72
2023/04/08 05:07:04;;;;;;;60.40;22.70;;;;;;;-145.18;100.00;46674.06;6181756;23;20017;-71
2023/04/08 05:09:30;;;;;;;119.90;23.20;;;;;;;-145.18;100.00;46674.06;6181545;23;20059;-72
2023/04/08 05:11:55;;;;;;;116.03;27.67;;;;;;;-145.18;100.00;46672.13;6155004;23;20009;-72
2023/04/08 05:14:21;;;;;;;63.67;22.17;;;;;;;-145.18;100.00;46677.97;6181957;23;20452;-71
2023/04/08 05:16:46;;;;;;;73.63;23.07;;;;;;;-145.18;100.00;46672.13;6181869;23;20403;-72
2023/04/08 05:19:11;;;;;;;69.47;21.23;;;;;;;-145.18;100.00;46672.13;6181286;23;20033;-71
2023/04/08 05:21:37;;;;;;;97.90;20.97;;;;;;;-145.18;100.00;46677.97;6181469;23;20430;-72
2023/04/08 05:24:02;;;;;;;62.07;22.07;;;;;;;-145.18;100.00;46677.97;6181385;23;20394;-72
2023/04/08 05:26:28;;;;;;;66.57;19.23;;;;;;;-145.18;100.00;46672.13;6180881;23;20036;-72
2023/04/08 05:28:53;;;;;;;89.67;19.50;;;;;;;-145.18;100.00;46672.13;6181354;23;20012;-72
2023/04/08 05:31:19;;;;;;;82.53;20.20;;;;;;;-145.18;100.00;46672.13;6181216;23;20009;-72
2023/04/08 05:33:45;;;;;;;76.67;17.60;;;;;;;-145.18;100.00;46672.13;6180788;23;20013;-72
2023/04/08 05:36:11;;;;;;;87.67;19.87;;;;;;;-145.18;100.00;46672.13;6172081;23;20079;-72
2023/04/08 05:38:37;;;;;;;55.97;16.70;;;;;;;-145.18;100.00;46672.13;6180702;23;20033;-72
2023/04/08 05:41:02;;;;;;;68.43;17.67;;;;;;;-145.18;100.00;46674.06;6180839;23;20602;-72
2023/04/08 05:43:28;;;;;;;52.50;15.63;;;;;;;-145.18;100.00;46670.16;6173901;23;20044;-72
2023/04/08 05:45:54;;;;;;;66.57;17.23;;;;;;;-145.18;100.00;46674.06;6181449;23;20408;-72
2023/04/08 05:48:19;;;;;;;53.93;15.97;;;;;;;-145.18;100.00;46674.06;6183245;23;20009;-72
2023/04/08 05:50:47;;;;;;;59.60;15.77;;;;;;;-145.18;100.00;46668.22;6183138;23;20009;-72
2023/04/08 05:53:12;;;;;;;46.73;15.73;;;;;;;-145.18;100.00;46672.13;6182554;23;20239;-72
2023/04/08 05:55:38;;;;;;;43.93;15.23;;;;;;;-145.18;100.00;46672.13;6174366;23;20258;-72
2023/04/08 05:58:03;;;;;;;61.50;15.87;;;;;;;-145.18;100.00;46681.88;6182978;23;20422;-72
2023/04/08 06:00:29;;;;;;;56.23;16.00;;;;;;;-145.18;100.00;46666.25;6183334;23;20071;-72
2023/04/08 06:02:54;;;;;;;85.97;16.10;;;;;;;-145.18;100.00;46676.03;6119103;23;20457;-71
2023/04/08 06:05:19;;;;;;;64.50;15.07;;;;;;;-145.18;100.00;46674.06;6161260;23;20017;-72
2023/04/08 06:07:45;;;;;;;45.13;15.23;;;;;;;-145.18;100.00;46681.88;6182936;23;20100;-72
2023/04/08 06:10:10;;;;;;;46.30;15.37;;;;;;;-145.18;100.00;46679.94;6183007;23;20009;-72
2023/04/08 06:12:39;;;;;;;42.70;16.47;;;;;;;-145.18;100.00;46676.03;6182969;23;20008;-72
2023/04/08 06:15:08;;;;;;;37.07;14.97;;;;;;;-145.18;100.00;46677.97;6182815;23;20013;-72
2023/04/08 06:17:37;;;;;;;54.50;16.97;;;;;;;-145.18;100.00;46676.03;6182924;23;20231;-72
2023/04/08 06:20:04;;;;;;;81.97;16.67;;;;;;;-145.18;100.00;46672.13;6182639;23;20230;-72
2023/04/08 06:22:29;;;;;;;52.90;15.00;;;;;;;-145.18;100.00;46674.06;6183095;23;20309;-72
2023/04/08 06:24:55;;;;;;;68.40;16.30;;;;;;;-145.18;100.00;46672.13;6182514;23;20230;-72
2023/04/08 06:27:21;;;;;;;103.83;17.30;;;;;;;-145.18;100.00;46679.94;6182973;23;20578;-72
2023/04/08 06:29:47;;;;;;;93.90;16.70;;;;;;;-145.18;100.00;46677.97;6181648;23;20012;-72
2023/04/08 06:32:13;;;;;;;45.57;15.57;;;;;;;-145.18;100.00;46674.06;6182865;23;20231;-72
2023/04/08 06:34:38;;;;;;;87.43;18.73;;;;;;;-145.18;100.00;46676.03;6182483;23;20028;-72
2023/04/08 06:37:05;;;;;;;57.93;16.47;;;;;;;-145.18;100.00;46676.03;6182271;23;20088;-72
2023/04/08 06:39:30;;;;;;;52.10;12.70;;;;;;;-145.18;100.00;46670.16;6181888;23;20442;-72
2023/04/08 06:41:56;;;;;;;36.00;14.60;;;;;;;-145.18;100.00;46670.16;6182344;23;20242;-72
2023/04/08 06:44:22;;;;;;;53.93;12.20;;;;;;;-145.18;100.00;46670.16;6182932;23;20015;-72
2023/04/08 06:46:47;;;;;;;68.50;14.73;;;;;;;-145.18;100.00;46674.06;6182697;23;20235;-72
2023/04/08 06:49:13;;;;;;;78.60;11.90;;;;;;;-145.18;100.00;46672.13;6181883;23;20035;-72
2023/04/08 06:51:38;;;;;;;94.07;12.43;;;;;;;-145.18;100.00;46674.06;6182823;23;20065;-72
2023/04/08 06:54:03;;;;;;;90.20;13.37;;;;;;;-145.18;100.00;46670.16;6182153;23;20423;-72
2023/04/08 06:56:29;;;;;;;96.17;14.67;;;;;;;-145.18;100.00;46677.97;6182465;23;20455;-72
2023/04/08 06:58:54;;;;;;;75.03;13.17;;;;;;;-145.18;100.00;46670.16;6155240;23;20088;-71
2023/04/08 07:01:20;;;;;;;49.23;11.93;;;;;;;-145.18;100.00;46674.06;6182433;23;20607;-72
2023/04/08 07:03:45;;;;;;;107.27;15.30;;;;;;;-145.18;100.00;46670.16;6182325;23;20016;-72
2023/04/08 07:06:11;;;;;;;61.13;14.57;;;;;;;-145.18;100.00;46674.06;6182151;23;20446;-72
2023/04/08 07:08:37;;;;;;;63.57;12.00;;;;;;;-145.18;100.00;46676.03;6182508;23;20009;-72
2023/04/08 07:11:03;;;;;;;74.97;13.83;;;;;;;-145.18;100.00;46674.06;6182185;23;20001;-72
2023/04/08 07:13:29;;;;;;;67.43;14.47;;;;;;;-145.18;100.00;46674.06;6182492;23;21111;-71
2023/04/08 07:15:55;;;;;;;85.50;15.27;;;;;;;-145.18;100.00;46674.06;6182038;23;20016;-72
2023/04/08 07:18:20;;;;;;;73.63;14.27;;;;;;;-145.18;100.00;46672.13;6182325;23;20239;-72
2023/04/08 07:20:51;;;;;;;60.63;14.13;;;;;;;-145.18;100.00;46672.13;6182407;23;20013;-72
2023/04/08 07:23:17;;;;;;;56.13;13.13;;;;;;;-145.18;100.00;46672.13;6182059;23;20366;-71
2023/04/08 07:25:42;;;;;;;85.93;13.63;;;;;;;-145.18;100.00;46674.06;6182432;23;20243;-72
2023/04/08 07:28:07;;;;;;;72.47;14.53;;;;;;;-145.18;100.00;46676.03;6181966;23;20012;-72
2023/04/08 07:30:33;;;;;;;53.93;14.23;;;;;;;-145.18;100.00;46676.03;6182711;23;20012;-72
2023/04/08 07:32:58;;;;;;;60.37;15.83;;;;;;;-145.18;100.00;46672.13;6181989;23;20009;-72
2023/04/08 07:35:24;;;;;;;46.53;14.70;;;;;;;-145.18;100.00;46672.13;6155953;23;20092;-72
2023/04/08 07:37:51;;;;;;;47.40;16.73;;;;;;;-145.18;100.00;46672.13;6182321;23;20458;-72
2023/04/08 07:40:17;;;;;;;41.57;15.30;;;;;;;-145.18;100.00;46672.13;6181869;23;20722;-72
2023/04/08 07:42:42;;;;;;;55.77;15.73;;;;;;;-145.18;100.00;46674.06;6182214;23;20239;-72
2023/04/08 07:45:08;;;;;;;101.40;15.77;;;;;;;-145.18;100.00;46676.03;6181778;23;20016;-72
2023/04/08 07:47:34;;;;;;;45.27;13.20;;;;;;;-145.18;100.00;46672.13;6182257;23;20013;-72
2023/04/08 07:50:00;;;;;;;45.83;15.03;;;;;;;-145.18;100.00;46676.03;6182128;23;20018;-72
2023/04/08 07:52:25;;;;;;;38.00;14.77;;;;;;;-145.18;100.00;46672.13;6182199;23;20005;-72
2023/04/08 07:54:50;;;;;;;38.77;16.40;;;;;;;-145.18;100.00;46676.03;6181896;23;20019;-72
2023/04/08 07:57:16;;;;;;;38.87;14.63;;;;;;;-145.18;100.00;46676.03;6181842;23;20005;-71
2023/04/08 07:59:41;;;;;;;53.90;16.67;;;;;;;-145.18;100.00;46672.13;6182145;23;20005;-72
2023/04/08 08:02:06;;;;;;;48.87;15.23;;;;;;;-145.18;100.00;46672.13;6181952;23;20009;-71
2023/04/08 08:04:32;;;;;;;32.33;14.53;;;;;;;-145.18;100.00;46677.97;6181617;23;20044;-72
2023/04/08 08:06:57;;;;;;;39.57;15.27;;;;;;;-145.18;100.00;46674.06;6182114;23;20016;-72
2023/04/08 08:09:23;;;;;;;36.63;16.03;;;;;;;-145.18;100.00;46674.06;6181509;23;20008;-72
2023/04/08 08:11:48;;;;;;;40.20;16.20;;;;;;;-145.18;100.00;46676.03;6180966;23;20437;-72
2023/04/08 08:14:14;;;;;;;35.73;15.10;;;;;;;-145.18;100.00;46677.97;6180832;23;20423;-72
2023/04/08 08:16:40;;;;;;;34.43;15.13;;;;;;;-145.18;100.00;46676.03;6181799;23;20064;-72
2023/04/08 08:19:07;;;;;;;35.33;16.80;;;;;;;-145.18;100.00;46676.03;6180953;23;20231;-72
2023/04/08 08:21:35;;;;;;;38.27;16.47;;;;;;;-145.18;100.00;46674.06;6181928;23;20001;-72
2023/04/08 08:24:01;;;;;;;34.60;17.03;;;;;;;-145.18;100.00;46672.13;6181705;23;20548;-72
2023/04/08 08:26:27;;;;;;;34.07;15.37;;;;;;;-145.18;100.00;46679.94;6182069;23;20258;-72
2023/04/08 08:28:53;;;;;;;37.30;16.40;;;;;;;-145.18;100.00;46670.16;6181583;23;20377;-72
2023/04/08 08:31:18;;;;;;;36.57;16.03;;;;;;;-145.18;100.00;46681.88;6181944;23;20219;-72
2023/04/08 08:33:43;;;;;;;37.67;15.53;;;;;;;-145.18;100.00;46683.84;6181610;23;20009;-72
2023/04/08 08:36:09;;;;;;;31.90;14.80;;;;;;;-145.18;100.00;46683.84;6181707;23;20016;-72
2023/04/08 08:38:34;;;;;;;33.23;15.13;;;;;;;-145.18;100.00;46679.94;6181554;23;20063;-72
2023/04/08 08:41:00;;;;;;;30.10;14.70;;;;;;;-145.18;100.00;46683.84;6181521;23;20445;-72
2023/04/08 08:43:27;;;;;;;32.93;15.27;;;;;;;-145.18;100.00;46683.84;6181914;23;20013;-72
2023/04/08 08:45:53;;;;;;;30.33;15.13;;;;;;;-145.18;100.00;46681.88;6181702;23;20005;-72
2023/04/08 08:48:19;;;;;;;33.30;16.37;;;;;;;-145.18;100.00;46681.88;6180404;23;20239;-72
2023/04/08 08:50:45;;;;;;;36.07;16.70;;;;;;;-145.18;100.00;46683.84;6181554;23;20298;-72
2023/04/08 08:53:10;;;;;;;33.40;16.03;;;;;;;-145.18;100.00;46683.84;6181169;23;20005;-72
2023/04/08 08:55:38;;;;;;;37.30;16.90;;;;;;;-145.18;100.00;46681.88;6182062;23;20016;-72
2023/04/08 08:58:04;;;;;;;33.40;16.20;;;;;;;-145.18;100.00;46683.84;6181612;23;20005;-72
2023/04/08 09:00:43;;;;;;;38.43;16.07;;;;;;;-145.18;100.00;46685.78;6181764;23;20231;-72
2023/04/08 09:03:21;;;;;;;37.07;17.97;;;;;;;-145.18;100.00;46679.94;6181533;23;20243;-72
2023/04/08 09:05:55;;;;;;;33.90;17.47;;;;;;;-145.18;100.00;46685.78;6181877;23;20251;-73
2023/04/08 09:08:35;;;;;;;37.93;19.13;;;;;;;-145.18;100.00;46681.88;6181813;23;20715;-72
2023/04/08 09:11:14;;;;;;;36.67;18.97;;;;;;;-145.18;100.00;46685.78;6181888;23;20242;-72
2023/04/08 09:13:40;;;;;;;37.67;19.40;;;;;;;-145.18;100.00;46685.78;6181562;23;20231;-72
2023/04/08 09:16:11;;;;;;;40.47;19.47;;;;;;;-145.18;100.00;46689.69;6181241;23;20325;-72
2023/04/08 09:18:37;;;;;;;38.53;20.07;;;;;;;-145.18;100.00;46689.69;6180574;23;20227;-73
2023/04/08 09:21:04;;;;;;;36.30;19.27;;;;;;;-145.18;100.00;46693.59;6180628;23;20235;-73
2023/04/08 09:23:46;;;;;;;38.50;19.27;;;;;;;-145.18;100.00;46693.59;6181090;23;20242;-73
2023/04/08 09:26:16;;;;;;;35.27;19.40;;;;;;;-145.18;100.00;46695.56;6181352;23;20231;-73
2023/04/08 09:28:44;;;;;;;36.33;18.63;;;;;;;-145.18;100.00;46697.50;6180733;23;20546;-73
2023/04/08 09:31:21;;;;;;;39.23;20.33;;;;;;;-145.18;100.00;46695.56;6183334;23;20231;-73
2023/04/08 09:33:48;;;;;;;32.83;19.17;;;;;;;-145.18;100.00;46691.66;6183070;23;20235;-72
2023/04/08 09:36:14;;;;;;;35.20;19.07;;;;;;;-145.18;100.00;46697.50;6183336;23;20250;-73
2023/04/08 09:38:40;;;;;;;30.73;18.13;;;;;;;-145.18;100.00;46677.97;6183322;23;20238;-73
2023/04/08 09:41:07;;;;;;;34.77;19.50;;;;;;;-145.18;100.00;46640.88;6183110;23;20596;-72
2023/04/08 09:43:40;;;;;;;34.30;18.63;;;;;;;-145.18;100.00;46613.50;6182960;23;20005;-72
2023/04/08 09:46:10;;;;;;;34.50;19.50;;;;;;;-145.18;100.00;46582.25;6183267;23;20223;-73
2023/04/08 09:48:40;;;;;;;32.20;19.13;;;;;;;-145.18;100.00;46574.44;6156992;23;20378;-73
2023/04/08 09:51:07;;;;;;;34.27;18.97;;;;;;;-145.18;100.00;46580.31;6183560;23;20098;-73
2023/04/08 09:53:45;;;;;;;31.73;19.17;;;;;;;-145.18;100.00;46582.25;6183072;23;20771;-73
2023/04/08 09:56:12;;;;;;;28.97;18.03;;;;;;;-145.18;100.00;46593.97;6182821;23;20763;-73
2023/04/08 09:58:45;;;;;;;33.90;18.67;;;;;;;-145.18;100.00;46592.03;6183175;23;20001;-73
2023/04/08 10:01:13;;;;;;;31.43;19.23;;;;;;;-145.18;100.00;46592.03;6183412;23;20291;-73
2023/04/08 10:03:44;;;;;;;29.77;18.57;;;;;;;-145.18;100.00;46619.38;6182911;23;20131;-73
2023/04/08 10:06:10;;;;;;;32.50;18.60;;;;;;;-145.18;100.00;46619.38;6182517;23;20021;-72
2023/04/08 10:08:36;;;;;;;34.00;18.33;;;;;;;-145.18;100.00;46613.50;6156898;23;20013;-73
2023/04/08 10:11:02;;;;;;;31.03;18.50;;;;;;;-145.18;100.00;46631.09;6183320;23;20019;-73
2023/04/08 10:13:28;;;;;;;46.27;19.47;;;;;;;-145.18;100.00;46650.63;6183054;23;20103;-73
2023/04/08 10:16:20;;;;;;;79.00;25.07;;;;;;;-145.18;100.00;46691.66;6181734;23;20363;-73
2023/04/08 10:18:46;;;;;;;29.90;18.10;;;;;;;-145.18;100.00;46701.41;6183068;23;20025;-73
2023/04/08 10:21:35;;;;;;;29.57;17.97;;;;;;;-145.18;100.00;46740.47;6182945;23;20308;-73
2023/04/08 10:24:07;;;;;;;27.73;18.17;;;;;;;-145.18;100.00;46771.75;6156079;23;20008;-74
2023/04/08 10:26:38;;;;;;;28.53;17.73;;;;;;;-145.18;100.00;46685.78;6183012;23;20067;-73
2023/04/08 10:29:28;;;;;;;29.50;17.50;;;;;;;-145.18;100.00;46761.97;6182622;23;20004;-74
2023/04/08 10:31:53;;;;;;;28.23;16.57;;;;;;;-145.18;100.00;46738.53;6183137;23;20013;-74
2023/04/08 10:34:21;;;;;;;30.27;18.83;;;;;;;-145.18;100.00;46707.28;6182242;23;20017;-74
2023/04/08 10:36:47;;;;;;;30.63;19.23;;;;;;;-145.18;100.00;46742.44;6183270;23;20020;-74
2023/04/08 10:39:14;;;;;;;26.70;17.43;;;;;;;-145.18;100.00;46744.38;6182724;23;20016;-74
2023/04/08 10:41:47;;;;;;;26.20;17.10;;;;;;;-145.18;100.00;46853.78;6183151;23;20009;-74
2023/04/08 10:44:20;;;;;;;29.23;16.13;;;;;;;-145.18;100.00;47228.84;6182736;23;20691;-74
2023/04/08 10:46:47;;;;;;;29.80;16.80;;;;;;;-145.18;100.00;47432.03;6182924;23;20338;-74
2023/04/08 10:49:13;;;;;;;27.83;17.67;;;;;;;-145.18;100.00;47457.44;6182268;23;20040;-75
2023/04/08 10:51:39;;;;;;;32.77;18.37;;;;;;;-145.18;100.00;47453.53;6182983;23;20096;-74
2023/04/08 10:54:08;;;;;;;28.07;17.53;;;;;;;-145.18;100.00;47312.88;6182680;23;20031;-75